createdAt,value
2022-08-20T00:02:07.623Z,13.77
2022-08-20T00:05:10.507Z,13.72
2022-08-20T00:08:12.711Z,13.90
2022-08-20T00:14:24.938Z,14.08
2022-08-20T00:17:27.399Z,14.25
2022-08-20T00:20:33.454Z,14.38
2022-08-20T00:23:40.307Z,14.52
2022-08-20T00:26:52.440Z,14.55
2022-08-20T00:29:54.901Z,14.81
2022-08-20T00:33:06.613Z,14.57
2022-08-20T00:36:10.762Z,14.45
2022-08-20T00:39:12.965Z,14.62
2022-08-20T00:42:15.051Z,14.87
2022-08-20T00:45:18.207Z,14.93
2022-08-20T00:48:20.292Z,14.94
2022-08-20T00:51:39.126Z,14.94
2022-08-20T00:54:50.107Z,15.14
2022-08-20T00:58:00.857Z,15.18
2022-08-20T01:01:04.623Z,15.11
2022-08-20T01:04:06.882Z,14.96
2022-08-20T01:07:08.962Z,14.89
2022-08-20T01:10:20.859Z,14.85
2022-08-20T01:13:23.936Z,14.74
2022-08-20T01:16:29.270Z,14.94
2022-08-20T01:19:43.699Z,15.17
2022-08-20T01:23:46.516Z,15.30
2022-08-20T01:26:49.172Z,15.34
2022-08-20T01:29:51.242Z,15.29
2022-08-20T01:32:53.340Z,15.22
2022-08-20T01:35:55.633Z,15.11
2022-08-20T01:38:59.515Z,14.72
2022-08-20T01:42:26.062Z,14.98
2022-08-20T01:45:30.348Z,14.60
2022-08-20T01:48:33.137Z,14.76
2022-08-20T01:51:35.230Z,14.76
2022-08-20T01:54:37.488Z,14.72
2022-08-20T01:57:39.695Z,14.82
2022-08-20T02:00:41.955Z,14.70
2022-08-20T02:03:44.878Z,14.65
2022-08-20T02:06:56.675Z,14.69
2022-08-20T02:09:59.889Z,14.72
2022-08-20T02:13:02.250Z,14.66
2022-08-20T02:16:06.078Z,14.56
2022-08-20T02:19:18.332Z,14.58
2022-08-20T02:22:49.981Z,14.55
2022-08-20T02:25:52.551Z,14.60
2022-08-20T02:28:55.547Z,14.43
2022-08-20T02:32:32.770Z,14.52
2022-08-20T02:35:20.190Z,14.57
2022-08-20T02:38:22.267Z,14.81
2022-08-20T02:41:24.467Z,14.77
2022-08-20T02:44:26.582Z,14.70
2022-08-20T02:47:29.003Z,14.68
2022-08-20T02:50:31.115Z,14.58
2022-08-20T02:53:35.778Z,14.65
2022-08-20T02:56:38.063Z,14.47
2022-08-20T02:59:40.278Z,14.64
2022-08-20T03:02:42.759Z,14.66
2022-08-20T03:05:45.031Z,14.65
2022-08-20T03:08:47.253Z,14.82
2022-08-20T03:11:49.366Z,14.51
2022-08-20T03:14:51.585Z,14.43
2022-08-20T03:17:53.714Z,14.48
2022-08-20T03:20:55.806Z,14.49
2022-08-20T03:23:58.009Z,14.39
2022-08-20T03:27:00.098Z,14.10
2022-08-20T03:30:02.181Z,14.12
2022-08-20T03:33:04.338Z,14.27
2022-08-20T03:36:07.860Z,14.02
2022-08-20T03:39:13.146Z,14.09
2022-08-20T03:42:15.246Z,13.99
2022-08-20T03:45:20.622Z,13.92
2022-08-20T03:48:22.843Z,14.07
2022-08-20T03:51:25.463Z,14.07
2022-08-20T03:54:31.512Z,14.08
2022-08-20T03:57:35.350Z,14.09
2022-08-20T04:00:47.752Z,14.28
2022-08-20T04:03:54.634Z,13.97
2022-08-20T04:06:57.234Z,14.06
2022-08-20T04:09:59.406Z,13.92
2022-08-20T04:13:01.635Z,13.88
2022-08-20T04:16:06.072Z,13.74
2022-08-20T04:19:13.351Z,13.93
2022-08-20T04:22:15.450Z,13.89
2022-08-20T04:25:17.563Z,14.00
2022-08-20T04:28:25.407Z,14.12
2022-08-20T04:31:33.390Z,14.15
2022-08-20T04:34:35.650Z,14.20
2022-08-20T04:37:41.611Z,14.39
2022-08-20T04:40:59.385Z,14.61
2022-08-20T04:44:01.703Z,14.13
2022-08-20T04:47:03.821Z,14.31
2022-08-20T04:50:09.910Z,14.34
2022-08-20T04:53:14.102Z,14.43
2022-08-20T04:56:16.179Z,14.42
2022-08-20T04:59:18.384Z,14.53
2022-08-20T05:02:21.306Z,14.83
2022-08-20T05:05:23.444Z,15.18
2022-08-20T05:08:26.068Z,15.56
2022-08-20T05:11:34.053Z,15.64
2022-08-20T05:14:38.394Z,15.94
2022-08-20T05:17:41.514Z,16.05
2022-08-20T05:20:43.681Z,16.08
2022-08-20T05:23:45.861Z,15.74
2022-08-20T05:26:48.035Z,15.40
2022-08-20T05:29:50.290Z,15.87
2022-08-20T05:32:54.666Z,16.11
2022-08-20T05:35:58.643Z,16.09
2022-08-20T05:39:00.795Z,15.73
2022-08-20T05:42:02.914Z,15.45
2022-08-20T05:45:11.178Z,15.29
2022-08-20T05:48:18.331Z,15.27
2022-08-20T05:51:20.453Z,15.65
2022-08-20T05:54:23.869Z,15.68
2022-08-20T05:57:26.110Z,15.79
2022-08-20T06:00:29.506Z,15.65
2022-08-20T06:03:58.091Z,15.58
2022-08-20T06:07:05.716Z,15.47
2022-08-20T06:10:09.214Z,15.91
2022-08-20T06:13:13.971Z,15.94
2022-08-20T06:16:16.424Z,16.21
2022-08-20T06:19:25.135Z,16.12
2022-08-20T06:22:28.678Z,16.27
2022-08-20T06:25:33.868Z,16.50
2022-08-20T06:28:39.575Z,16.55
2022-08-20T06:31:41.743Z,16.62
2022-08-20T06:34:49.836Z,16.88
2022-08-20T06:37:53.247Z,16.66
2022-08-20T06:40:55.379Z,16.89
2022-08-20T06:43:57.487Z,16.69
2022-08-20T06:47:05.758Z,16.61
2022-08-20T06:50:15.554Z,16.45
2022-08-20T06:53:20.656Z,16.23
2022-08-20T06:56:22.754Z,16.26
2022-08-20T06:59:24.846Z,16.48
2022-08-20T07:02:30.127Z,16.17
2022-08-20T07:05:37.873Z,16.44
2022-08-20T07:08:40.823Z,16.32
2022-08-20T07:11:43.053Z,16.36
2022-08-20T07:14:45.326Z,16.44
2022-08-20T07:17:55.484Z,16.46
2022-08-20T07:20:59.807Z,16.40
2022-08-20T07:24:02.011Z,16.53
2022-08-20T07:27:04.358Z,16.76
2022-08-20T07:30:26.960Z,16.60
2022-08-20T07:33:29.971Z,17.34
2022-08-20T07:36:32.214Z,16.50
2022-08-20T07:39:35.353Z,16.85
2022-08-20T07:42:39.474Z,16.47
2022-08-20T07:45:41.593Z,16.65
2022-08-20T07:48:51.280Z,16.56
2022-08-20T07:51:53.446Z,16.51
2022-08-20T07:54:55.527Z,16.40
2022-08-20T07:57:58.735Z,16.67
2022-08-20T08:01:00.997Z,16.50
2022-08-20T08:04:03.681Z,16.50
2022-08-20T08:07:06.039Z,16.38
2022-08-20T08:10:09.614Z,16.67
2022-08-20T08:13:12.272Z,16.46
2022-08-20T08:16:14.499Z,16.53
2022-08-20T08:19:17.070Z,16.63
2022-08-20T08:22:19.370Z,16.83
2022-08-20T08:25:22.143Z,16.49
2022-08-20T08:28:25.251Z,17.02
2022-08-20T08:31:28.090Z,16.77
2022-08-20T08:34:31.772Z,17.01
2022-08-20T08:37:38.209Z,17.05
2022-08-20T08:40:41.191Z,17.38
2022-08-20T08:43:46.663Z,17.41
2022-08-20T08:46:49.800Z,17.63
2022-08-20T08:49:51.888Z,17.54
2022-08-20T08:53:00.309Z,17.86
2022-08-20T08:56:03.371Z,17.67
2022-08-20T08:59:08.658Z,17.39
2022-08-20T09:02:17.535Z,17.84
2022-08-20T09:05:19.683Z,17.82
2022-08-20T09:08:53.042Z,17.63
2022-08-20T09:12:01.771Z,17.64
2022-08-20T09:15:04.256Z,17.64
2022-08-20T09:18:06.422Z,17.53
2022-08-20T09:21:09.566Z,17.60
2022-08-20T09:24:11.656Z,17.76
2022-08-20T09:27:13.771Z,16.68
2022-08-20T09:30:16.096Z,16.28
2022-08-20T09:33:20.600Z,15.89
2022-08-20T09:36:31.664Z,16.03
2022-08-20T09:39:35.292Z,16.18
2022-08-20T09:42:41.274Z,16.53
2022-08-20T09:45:43.887Z,16.80
2022-08-20T09:48:46.012Z,17.25
2022-08-20T09:51:48.132Z,17.16
2022-08-20T09:54:51.519Z,16.37
2022-08-20T09:57:53.611Z,16.94
2022-08-20T10:00:55.682Z,17.60
2022-08-20T10:03:57.752Z,17.68
2022-08-20T10:06:59.823Z,16.70
2022-08-20T10:10:02.637Z,17.14
2022-08-20T10:13:04.922Z,17.76
2022-08-20T10:16:07.126Z,18.52
2022-08-20T10:19:09.245Z,18.79
2022-08-20T10:22:11.409Z,18.16
2022-08-20T10:25:13.627Z,17.92
2022-08-20T10:28:16.890Z,17.46
2022-08-20T10:31:19.013Z,17.36
2022-08-20T10:34:21.119Z,17.42
2022-08-20T10:37:24.454Z,16.94
2022-08-20T10:40:26.658Z,17.24
2022-08-20T10:43:28.766Z,17.50
2022-08-20T10:46:30.904Z,17.50
2022-08-20T10:49:35.806Z,17.39
2022-08-20T10:52:37.955Z,17.37
2022-08-20T10:55:40.039Z,17.30
2022-08-20T10:58:42.106Z,17.37
2022-08-20T11:01:46.685Z,17.24
2022-08-20T11:04:49.374Z,17.27
2022-08-20T11:07:56.193Z,17.59
2022-08-20T11:10:58.878Z,17.70
2022-08-20T11:14:00.947Z,17.73
2022-08-20T11:17:03.443Z,17.42
2022-08-20T11:20:07.934Z,17.80
2022-08-20T11:23:10.037Z,17.44
2022-08-20T11:26:17.748Z,17.66
2022-08-20T11:29:22.292Z,17.83
2022-08-20T11:32:24.535Z,18.05
2022-08-20T11:35:48.866Z,18.48
2022-08-20T11:38:50.337Z,18.16
2022-08-20T11:41:55.399Z,18.12
2022-08-20T11:44:57.688Z,18.36
2022-08-20T11:47:59.776Z,18.64
2022-08-20T11:51:02.695Z,18.39
2022-08-20T11:54:05.598Z,18.10
2022-08-20T11:57:09.215Z,17.98
2022-08-20T12:00:16.228Z,17.90
2022-08-20T12:03:18.447Z,17.03
2022-08-20T12:06:20.630Z,17.30
2022-08-20T12:09:24.823Z,17.71
2022-08-20T12:12:27.043Z,17.98
2022-08-20T12:15:29.187Z,18.27
2022-08-20T12:18:31.935Z,18.32
2022-08-20T12:21:34.460Z,18.18
2022-08-20T12:24:36.807Z,18.16
2022-08-20T12:27:39.057Z,18.22
2022-08-20T12:30:41.208Z,18.39
2022-08-20T12:33:43.284Z,18.38
2022-08-20T12:36:45.363Z,18.15
2022-08-20T12:39:51.233Z,17.98
2022-08-20T12:42:53.626Z,17.99
2022-08-20T12:45:57.824Z,17.96
2022-08-20T12:48:59.916Z,17.67
2022-08-20T12:52:02.123Z,17.71
2022-08-20T12:55:05.331Z,17.64
2022-08-20T12:58:09.907Z,17.25
2022-08-20T13:01:12.188Z,18.11
2022-08-20T13:04:14.267Z,17.93
2022-08-20T13:07:16.773Z,18.00
2022-08-20T13:10:28.459Z,17.62
2022-08-20T13:13:30.539Z,17.73
2022-08-20T13:16:32.798Z,17.94
2022-08-20T13:19:35.943Z,17.66
2022-08-20T13:22:38.044Z,18.01
2022-08-20T13:25:40.118Z,17.74
2022-08-20T13:28:42.178Z,17.46
2022-08-20T13:31:44.270Z,17.37
2022-08-20T13:34:46.719Z,17.44
2022-08-20T13:37:49.780Z,17.77
2022-08-20T13:40:51.877Z,17.52
2022-08-20T13:43:53.974Z,18.16
2022-08-20T13:46:56.059Z,17.50
2022-08-20T13:50:05.480Z,17.85
2022-08-20T13:53:07.600Z,17.50
2022-08-20T13:56:10.039Z,17.36
2022-08-20T13:59:12.444Z,17.41
2022-08-20T14:02:15.082Z,17.13
2022-08-20T14:05:19.254Z,17.17
2022-08-20T14:08:23.258Z,17.46
2022-08-20T14:11:25.405Z,17.46
2022-08-20T14:14:27.528Z,17.71
2022-08-20T14:17:31.571Z,17.49
2022-08-20T14:20:33.984Z,17.67
2022-08-20T14:23:36.765Z,17.41
2022-08-20T14:26:39.135Z,17.52
2022-08-20T14:29:42.784Z,17.34
2022-08-20T14:32:44.922Z,17.67
2022-08-20T14:35:46.994Z,17.32
2022-08-20T14:38:49.114Z,17.36
2022-08-20T14:41:51.427Z,17.34
2022-08-20T14:44:54.276Z,17.45
2022-08-20T14:47:57.760Z,17.38
2022-08-20T14:51:00.852Z,17.15
2022-08-20T14:54:02.931Z,17.35
2022-08-20T14:57:05.585Z,17.37
2022-08-20T15:00:22.150Z,17.23
2022-08-20T15:03:28.884Z,17.31
2022-08-20T15:06:31.194Z,17.46
2022-08-20T15:09:34.672Z,17.38
2022-08-20T15:12:36.835Z,17.34
2022-08-20T15:15:40.441Z,17.23
2022-08-20T15:18:43.519Z,17.37
2022-08-20T15:21:45.926Z,17.17
2022-08-20T15:24:48.311Z,17.17
2022-08-20T15:27:50.412Z,17.33
2022-08-20T15:30:52.526Z,17.33
2022-08-20T15:33:54.650Z,17.55
2022-08-20T15:36:59.718Z,17.76
2022-08-20T15:40:07.128Z,17.94
2022-08-20T15:43:09.270Z,18.41
2022-08-20T15:46:11.375Z,17.76
2022-08-20T15:49:13.431Z,18.11
2022-08-20T15:52:15.656Z,18.07
2022-08-20T15:55:17.787Z,18.06
2022-08-20T15:59:01.530Z,18.00
2022-08-20T16:02:40.997Z,18.09
2022-08-20T16:06:19.559Z,17.98
2022-08-20T16:09:33.120Z,17.96
2022-08-20T16:12:39.500Z,17.75
2022-08-20T16:15:45.202Z,17.93
2022-08-20T16:18:51.847Z,18.08
2022-08-20T16:21:54.502Z,17.93
2022-08-20T16:24:56.855Z,18.31
2022-08-20T16:28:29.080Z,18.47
2022-08-20T16:31:43.438Z,17.97
2022-08-20T16:35:31.253Z,17.98
2022-08-20T16:38:46.056Z,17.93
2022-08-20T16:41:52.311Z,17.85
2022-08-20T16:44:55.258Z,17.72
2022-08-20T16:48:06.334Z,17.85
2022-08-20T16:51:17.115Z,17.75
2022-08-20T16:54:29.705Z,17.50
2022-08-20T16:57:33.293Z,17.18
2022-08-20T17:00:43.332Z,15.21
2022-08-20T17:03:50.819Z,13.95
2022-08-20T17:06:53.090Z,13.65
2022-08-20T17:10:13.904Z,13.59
2022-08-20T17:13:15.896Z,13.64
2022-08-20T17:16:21.396Z,13.55
2022-08-20T17:19:31.656Z,13.45
2022-08-20T17:22:43.036Z,13.33
2022-08-20T17:25:54.730Z,13.08
2022-08-20T17:29:15.986Z,13.21
2022-08-20T17:32:28.995Z,13.09
2022-08-20T17:35:41.819Z,13.43
2022-08-20T17:38:58.709Z,13.52
2022-08-20T17:42:07.640Z,13.75
2022-08-20T17:45:15.874Z,13.66
2022-08-20T17:48:28.448Z,13.76
2022-08-20T17:51:37.082Z,13.98
2022-08-20T17:54:43.075Z,14.09
2022-08-20T17:57:47.947Z,14.13
2022-08-20T18:00:50.209Z,14.38
2022-08-20T18:03:53.185Z,14.94
2022-08-20T18:07:16.486Z,14.82
2022-08-20T18:10:22.303Z,15.36
2022-08-20T18:13:45.053Z,15.72
2022-08-20T18:17:02.168Z,15.32
2022-08-20T18:20:48.344Z,15.49
2022-08-20T18:24:05.700Z,15.33
2022-08-20T18:27:14.064Z,15.51
2022-08-20T18:30:22.621Z,15.46
2022-08-20T18:33:34.017Z,15.22
2022-08-20T18:36:36.829Z,15.67
2022-08-20T18:39:41.581Z,15.92
2022-08-20T18:42:43.987Z,16.13
2022-08-20T18:45:46.058Z,16.07
2022-08-20T18:49:02.987Z,16.02
2022-08-20T18:52:18.989Z,15.96
2022-08-20T18:55:30.471Z,15.78
2022-08-20T18:58:59.346Z,15.71
2022-08-20T19:02:01.491Z,15.78
2022-08-20T19:05:09.863Z,16.10
2022-08-20T19:08:21.174Z,16.23
2022-08-20T19:12:02.926Z,16.50
2022-08-20T19:15:19.155Z,16.12
2022-08-20T19:18:30.127Z,15.92
2022-08-20T19:21:35.636Z,15.73
2022-08-20T19:24:43.560Z,15.46
2022-08-20T19:27:45.791Z,15.20
2022-08-20T19:30:47.924Z,15.26
2022-08-20T19:33:51.626Z,15.03
2022-08-20T19:37:34.327Z,15.40
2022-08-20T19:40:46.098Z,15.22
2022-08-20T19:43:48.520Z,15.47
2022-08-20T19:46:50.606Z,15.22
2022-08-20T19:50:29.362Z,15.76
2022-08-20T19:53:34.053Z,15.61
2022-08-20T19:56:40.928Z,15.54
2022-08-20T20:00:08.354Z,15.18
2022-08-20T20:03:25.479Z,15.49
2022-08-20T20:06:28.013Z,15.67
2022-08-20T20:09:30.284Z,16.00
2022-08-20T20:12:33.447Z,16.15
2022-08-20T20:15:36.818Z,16.11
2022-08-20T20:18:40.562Z,16.11
2022-08-20T20:21:46.273Z,15.94
2022-08-20T20:25:06.092Z,15.84
2022-08-20T20:28:26.968Z,15.62
2022-08-20T20:31:54.652Z,15.14
2022-08-20T20:34:59.107Z,15.12
2022-08-20T20:38:08.759Z,14.88
2022-08-20T20:41:20.660Z,15.22
2022-08-20T20:44:37.135Z,14.91
2022-08-20T20:47:39.636Z,14.87
2022-08-20T20:50:42.387Z,14.77
2022-08-20T20:53:51.603Z,14.72
2022-08-20T20:57:05.327Z,14.63
2022-08-20T21:00:13.420Z,14.49
2022-08-20T21:03:15.514Z,14.33
2022-08-20T21:06:18.138Z,14.13
2022-08-20T21:09:21.188Z,14.23
2022-08-20T21:12:23.429Z,14.33
2022-08-20T21:15:25.965Z,14.18
2022-08-20T21:18:28.046Z,14.29
2022-08-20T21:21:30.142Z,14.08
2022-08-20T21:24:32.210Z,14.03
2022-08-20T21:27:34.315Z,13.96
2022-08-20T21:30:36.413Z,14.02
2022-08-20T21:33:38.487Z,14.08
2022-08-20T21:36:40.899Z,13.97
2022-08-20T21:39:43.071Z,14.07
2022-08-20T21:42:45.240Z,14.26
2022-08-20T21:45:49.627Z,14.13
2022-08-20T21:48:51.879Z,13.99
2022-08-20T21:51:54.158Z,14.11
2022-08-20T21:54:57.459Z,14.17
2022-08-20T21:57:59.592Z,14.04
2022-08-20T22:01:04.229Z,14.30
2022-08-20T22:04:06.818Z,14.57
2022-08-20T22:07:09.103Z,14.49
2022-08-20T22:10:12.907Z,14.75
2022-08-20T22:13:15.264Z,14.85
2022-08-20T22:16:19.347Z,14.87
2022-08-20T22:19:21.531Z,14.20
2022-08-20T22:22:23.658Z,14.10
2022-08-20T22:25:25.838Z,14.37
2022-08-20T22:28:27.927Z,14.39
2022-08-20T22:31:31.834Z,14.42
2022-08-20T22:34:34.892Z,14.70
2022-08-20T22:37:37.053Z,14.81
2022-08-20T22:40:39.158Z,14.58
2022-08-20T22:43:45.032Z,14.73
2022-08-20T22:47:01.728Z,14.66
2022-08-20T22:50:05.177Z,14.73
2022-08-20T22:53:07.330Z,14.29
2022-08-20T22:56:09.484Z,14.05
2022-08-20T22:59:22.314Z,13.69
2022-08-20T23:02:24.914Z,13.93
2022-08-20T23:05:28.497Z,13.84
2022-08-20T23:08:30.714Z,13.85
2022-08-20T23:11:32.858Z,13.63
2022-08-20T23:14:35.015Z,13.51
2022-08-20T23:17:38.143Z,13.54
2022-08-20T23:20:41.418Z,13.41
2022-08-20T23:23:43.595Z,13.49
2022-08-20T23:26:52.448Z,13.15
2022-08-20T23:29:55.488Z,13.40
2022-08-20T23:32:57.758Z,13.23
2022-08-20T23:36:05.361Z,13.24
2022-08-20T23:39:07.494Z,13.25
2022-08-20T23:42:11.079Z,13.04
2022-08-20T23:45:13.774Z,12.99
2022-08-20T23:48:15.851Z,12.99
2022-08-20T23:51:18.020Z,12.95
2022-08-20T23:54:20.100Z,12.89
2022-08-20T23:57:22.261Z,12.86
